Terminal Aerodrome Forecast
Issued by NWS

Home | Current Version | Previous Version | Text Only | Print | Product List | Glossary On
Versions: 1 2 3 4 5 6 7 8 9 10 11 12 13 14 15
666
FTUS46 KMFR 210530
TAFLMT
TAF
KLMT 210530Z 2106/2206 34005KT 4SM FU BKN020
     FM210800 36002KT 6SM HZ SCT020
     FM212000 18005KT P6SM SKC
     FM220100 32008KT 6SM FU HZ SCT020=

USA.gov is the U.S. government's official web portal to all federal, state and local government web resources and services.